createdAt,value
2022-12-13T00:01:59.003Z,98701.03
2022-12-13T00:04:26.658Z,98717.56
2022-12-13T00:06:54.344Z,98739.38
2022-12-13T00:09:22.053Z,98750.78
2022-12-13T00:11:50.332Z,98754.22
2022-12-13T00:14:17.938Z,98768.22
2022-12-13T00:16:47.247Z,98771.75
2022-12-13T00:19:14.794Z,98786.63
2022-12-13T00:21:41.875Z,98775.34
2022-12-13T00:24:08.872Z,98783.13
2022-12-13T00:26:36.671Z,98783.16
2022-12-13T00:29:06.338Z,98791.81
2022-12-13T00:34:20.671Z,98789.25
2022-12-13T00:36:48.485Z,98803.22
2022-12-13T00:39:16.896Z,98778.22
2022-12-13T00:41:47.567Z,98789.44
2022-12-13T00:44:15.296Z,98782.41
2022-12-13T00:46:43.081Z,98790.94
2022-12-13T00:49:13.261Z,98797.88
2022-12-13T00:51:40.647Z,98797.03
2022-12-13T00:54:07.938Z,98794.41
2022-12-13T00:56:34.943Z,98797.81
2022-12-13T00:59:02.376Z,98791.69
2022-12-13T01:01:32.877Z,98796.91
2022-12-13T01:04:02.738Z,98800.31
2022-12-13T01:06:36.357Z,98797.69
2022-12-13T01:09:05.647Z,98799.47
2022-12-13T01:11:32.917Z,98800.28
2022-12-13T01:13:59.880Z,98806.44
2022-12-13T01:16:26.827Z,98801.09
2022-12-13T01:18:53.841Z,98794.97
2022-12-13T01:21:22.195Z,98799.25
2022-12-13T01:23:50.394Z,98796.69
2022-12-13T01:26:21.457Z,98793.16
2022-12-13T01:28:49.484Z,98787.97
2022-12-13T01:31:20.029Z,98784.44
2022-12-13T01:33:48.706Z,98790.47
2022-12-13T01:36:19.663Z,98788.69
2022-12-13T01:38:58.495Z,98790.41
2022-12-13T01:41:28.877Z,98789.47
2022-12-13T01:44:01.428Z,98786.84
2022-12-13T01:46:33.772Z,98785.13
2022-12-13T01:49:19.602Z,98782.50
2022-12-13T01:52:06.630Z,98779.03
2022-12-13T01:54:46.415Z,98787.63
2022-12-13T01:57:18.112Z,98786.78
2022-12-13T01:59:47.624Z,98779.81
2022-12-13T02:02:15.673Z,98782.44
2022-12-13T02:04:51.968Z,98774.66
2022-12-13T02:07:23.497Z,98766.00
2022-12-13T02:09:56.414Z,98763.41
2022-12-13T02:12:30.782Z,98764.31
2022-12-13T02:15:05.277Z,98766.06
2022-12-13T02:17:53.542Z,98774.75
2022-12-13T02:20:54.263Z,98770.47
2022-12-13T02:23:39.381Z,98783.50
2022-12-13T02:26:31.390Z,98783.56
2022-12-13T06:26:35.855Z,98853.97
2022-12-13T06:29:02.027Z,98864.28
2022-12-13T06:31:28.187Z,98869.41
2022-12-13T06:33:54.535Z,98870.19
2022-12-13T06:36:25.401Z,98886.47
2022-12-13T06:38:55.612Z,98893.25
2022-12-13T06:41:26.463Z,98891.38
2022-12-13T06:43:58.717Z,98904.16
2022-12-13T06:46:25.927Z,98905.75
2022-12-13T06:48:53.571Z,98906.44
2022-12-13T06:51:33.080Z,98895.03
2022-12-13T06:54:02.967Z,98888.84
2022-12-13T06:56:40.605Z,98885.25
2022-12-13T06:59:12.553Z,98888.59
2022-12-13T07:01:39.519Z,98887.63
2022-12-13T07:04:30.156Z,98887.59
2022-12-13T07:06:55.146Z,98897.84
2022-12-13T07:09:29.072Z,98897.75
2022-12-13T07:11:56.708Z,98904.59
2022-12-13T07:14:40.467Z,98897.63
2022-12-13T07:17:11.859Z,98906.22
2022-12-13T07:19:39.280Z,98906.16
2022-12-13T07:22:06.952Z,98903.41
2022-12-13T07:24:37.773Z,98908.53
2022-12-13T07:27:05.348Z,98900.66
2022-12-13T07:29:32.672Z,98910.16
2022-12-13T07:32:01.462Z,98910.00
2022-12-13T07:34:32.383Z,98908.16
2022-12-13T07:37:03.580Z,98912.38
2022-12-13T07:39:36.864Z,98912.38
2022-12-13T07:42:05.316Z,98910.50
2022-12-13T07:44:33.882Z,98912.16
2022-12-13T07:49:08.974Z,98918.09
2022-12-13T07:51:36.352Z,98913.66
2022-12-13T07:54:06.759Z,98919.75
2022-12-13T07:56:35.673Z,98914.44
2022-12-13T07:59:03.399Z,98926.56
2022-12-13T08:01:35.229Z,98928.22
2022-12-13T08:04:04.320Z,98915.94
2022-12-13T08:06:36.239Z,98923.69
2022-12-13T08:09:04.496Z,98918.47
2022-12-13T08:11:31.936Z,98922.75
2022-12-13T08:13:59.209Z,98924.44
2022-12-13T08:16:29.353Z,98932.28
2022-12-13T08:19:02.970Z,98932.13
2022-12-13T08:21:56.671Z,98934.63
2022-12-13T08:24:26.797Z,98931.91
2022-12-13T08:26:55.447Z,98931.00
2022-12-13T08:29:33.890Z,98931.78
2022-12-13T08:32:08.681Z,98929.97
2022-12-13T08:34:36.108Z,98929.72
2022-12-13T08:37:04.325Z,98922.66
2022-12-13T08:39:35.585Z,98920.81
2022-12-13T08:42:17.148Z,98925.03
2022-12-13T08:44:48.224Z,98915.25
2022-12-13T08:47:23.015Z,98921.25
2022-12-13T08:50:02.517Z,98907.19
2022-12-13T08:52:39.407Z,98911.56
2022-12-13T08:55:13.855Z,98909.69
2022-12-13T08:57:42.922Z,98907.13
2022-12-13T09:00:16.738Z,98895.66
2022-12-13T09:02:44.695Z,98900.00
2022-12-13T09:05:32.226Z,98906.84
2022-12-13T09:08:22.967Z,98906.66
2022-12-13T09:11:11.383Z,98903.06
2022-12-13T09:13:50.024Z,98909.88
2022-12-13T09:16:23.132Z,98898.69
2022-12-13T09:18:54.800Z,98899.44
2022-12-13T09:21:31.603Z,98901.91
2022-12-13T09:24:01.886Z,98901.94
2022-12-13T09:26:29.953Z,98905.28
2022-12-13T09:29:10.523Z,98900.91
2022-12-13T09:31:40.476Z,98907.19
2022-12-13T09:34:08.836Z,98904.53
2022-12-13T09:36:35.765Z,98906.88
2022-12-13T09:39:03.630Z,98905.97
2022-12-13T09:42:01.431Z,98901.50
2022-12-13T09:44:42.721Z,98901.59
2022-12-13T09:47:34.948Z,98901.44
2022-12-13T09:50:08.576Z,98903.97
2022-12-13T09:52:44.635Z,98889.00
2022-12-13T09:55:30.257Z,98894.84
2022-12-13T09:57:59.322Z,98887.84
2022-12-13T10:00:35.887Z,98885.97
2022-12-13T10:03:03.828Z,98886.75
2022-12-13T10:05:39.818Z,98886.66
2022-12-13T10:08:11.647Z,98886.56
2022-12-13T10:10:38.861Z,98882.16
2022-12-13T10:13:42.801Z,98871.47
2022-12-13T10:16:14.040Z,98863.59
2022-12-13T10:18:43.117Z,98852.16
2022-12-13T15:00:26.366Z,98917.63
2022-12-13T15:02:55.741Z,98912.38
2022-12-13T15:05:50.189Z,98911.38
2022-12-13T15:08:20.367Z,98913.81
2022-12-13T15:11:02.160Z,98915.38
2022-12-13T15:13:47.222Z,98907.41
2022-12-13T15:16:29.694Z,98906.34
2022-12-13T15:19:31.116Z,98910.47
2022-12-13T15:22:07.704Z,98912.03
2022-12-13T15:24:48.738Z,98913.59
2022-12-13T15:27:27.313Z,98900.47
2022-12-13T15:29:55.246Z,98905.56
2022-12-13T15:32:25.399Z,98907.19
2022-12-13T15:34:53.161Z,98910.53
2022-12-13T15:37:30.261Z,98916.53
2022-12-13T15:40:07.989Z,98914.72
2022-12-13T15:42:39.228Z,98918.09
2022-12-13T15:45:17.656Z,98924.06
2022-12-13T15:47:47.614Z,98919.69
2022-12-13T15:50:50.439Z,98919.59
2022-12-13T15:53:27.262Z,98924.88
2022-12-13T15:55:54.780Z,98924.00
2022-12-13T15:58:33.464Z,98929.13
2022-12-13T16:01:06.016Z,98929.19
2022-12-13T16:03:43.506Z,98931.75
2022-12-13T16:06:18.072Z,98936.03
2022-12-13T16:08:49.631Z,98933.38
2022-12-13T16:11:31.890Z,98936.91
2022-12-13T16:14:30.706Z,98936.84
2022-12-13T16:17:08.335Z,98932.53
2022-12-13T16:19:37.210Z,98939.53
2022-12-13T16:22:08.685Z,98937.00
2022-12-13T16:24:38.382Z,98935.31
2022-12-13T16:27:08.497Z,98946.59
2022-12-13T16:29:36.146Z,98937.09
2022-12-13T16:32:03.508Z,98943.13
2022-12-13T16:34:36.136Z,98948.28
2022-12-13T16:37:03.597Z,98950.84
2022-12-13T16:39:36.246Z,98952.50
2022-12-13T16:42:03.301Z,98954.19
2022-12-13T16:44:37.570Z,98954.97
2022-12-13T16:47:12.560Z,98954.09
2022-12-13T16:49:43.875Z,98954.09
2022-12-13T16:52:10.908Z,98947.22
2022-12-13T16:54:38.085Z,98950.75
2022-12-13T16:57:05.030Z,98955.81
2022-12-13T16:59:33.382Z,98947.94
2022-12-13T17:02:00.536Z,98954.91
2022-12-13T17:04:29.095Z,98947.09
2022-12-13T17:06:57.138Z,98954.91
2022-12-13T17:09:25.683Z,98954.09
2022-12-13T17:11:54.404Z,98960.19
2022-12-13T17:14:21.762Z,98957.53
2022-12-13T17:16:48.840Z,98959.22
2022-12-13T17:19:17.568Z,98955.00
2022-12-13T17:21:45.420Z,98957.47
2022-12-13T17:24:13.155Z,98965.25
2022-12-13T17:26:41.609Z,98967.03
2022-12-13T17:29:24.799Z,98971.38
2022-12-13T17:31:53.611Z,98969.66
2022-12-13T17:34:21.592Z,98978.41
2022-12-13T17:36:49.127Z,98969.75
2022-12-13T17:39:18.792Z,98975.03
2022-12-13T17:41:54.470Z,98965.56
2022-12-13T17:44:26.613Z,98974.28
2022-12-13T17:46:55.677Z,98973.56
2022-12-13T17:49:23.791Z,98972.94
2022-12-13T17:51:54.380Z,98976.63
2022-12-13T17:54:24.018Z,98975.00
2022-12-13T17:56:52.246Z,98978.69
2022-12-13T17:59:20.188Z,98971.78
2022-12-13T18:01:47.907Z,98984.78
2022-12-13T18:04:15.492Z,98990.06
2022-12-13T18:06:42.872Z,99002.38
2022-12-13T18:09:14.294Z,99009.31
2022-12-13T18:11:41.521Z,99003.34
2022-12-13T20:44:59.706Z,99129.19
2022-12-13T20:47:27.486Z,99131.25
2022-12-13T20:49:53.493Z,99124.81
2022-12-13T20:52:20.736Z,99123.41
2022-12-13T20:54:48.795Z,99122.00
2022-12-13T20:57:19.036Z,99114.56
2022-12-13T20:59:49.499Z,99117.41
2022-12-13T21:02:18.641Z,99109.84
2022-12-13T21:04:50.637Z,99110.81
2022-12-13T21:07:38.395Z,99116.03
2022-12-13T21:10:11.727Z,99119.50
2022-12-13T21:12:39.195Z,99126.41
2022-12-13T21:15:06.692Z,99128.97
2022-12-13T21:17:33.893Z,99119.50
2022-12-13T21:20:00.866Z,99128.16
2022-12-13T21:22:27.934Z,99130.78
2022-12-13T21:24:55.588Z,99132.53
2022-12-13T21:27:22.846Z,99123.09
2022-12-13T21:29:50.110Z,99127.44
2022-12-13T21:32:17.257Z,99124.00
2022-12-13T21:34:44.463Z,99120.56
2022-12-13T21:37:11.319Z,99125.72
2022-12-13T21:39:38.368Z,99118.84
2022-12-13T21:42:05.581Z,99127.47
2022-12-13T21:44:32.917Z,99119.72
2022-12-13T21:47:15.352Z,99124.03
2022-12-13T21:49:48.752Z,99131.78
2022-12-13T21:52:16.811Z,99122.28
2022-12-13T21:54:43.734Z,99124.88
2022-12-13T21:57:29.540Z,99119.69
2022-12-13T21:59:56.489Z,99119.69
2022-12-13T22:02:23.352Z,99119.69
2022-12-13T22:04:54.410Z,99123.13
2022-12-13T22:07:22.674Z,99129.22
2022-12-13T22:09:50.413Z,99139.56
2022-12-13T22:12:20.400Z,99130.91
2022-12-13T22:14:47.803Z,99131.75
2022-12-13T22:17:14.997Z,99136.06
2022-12-13T22:19:42.161Z,99136.06
2022-12-13T22:22:09.530Z,99135.19
2022-12-13T22:24:36.336Z,99142.13
2022-12-13T22:27:04.114Z,99137.84
2022-12-13T22:29:31.088Z,99136.09
2022-12-13T22:31:57.882Z,99143.03
2022-12-13T22:34:24.705Z,99139.56
2022-12-13T22:36:52.264Z,99139.56
2022-12-13T22:39:21.208Z,99144.66
2022-12-13T22:41:49.162Z,99142.09
2022-12-13T22:44:17.439Z,99144.66
2022-12-13T22:46:44.512Z,99146.34
2022-12-13T22:49:12.194Z,99148.03
2022-12-13T22:51:39.562Z,99162.66
2022-12-13T22:54:06.964Z,99150.56
2022-12-13T22:56:34.061Z,99156.59
2022-12-13T22:59:02.324Z,99154.00
2022-12-13T23:01:32.404Z,99157.50
2022-12-13T23:04:00.098Z,99160.13
2022-12-13T23:06:29.879Z,99161.88
2022-12-13T23:09:01.403Z,99161.06
2022-12-13T23:11:48.457Z,99159.34
2022-12-13T23:14:18.906Z,99157.66
2022-12-13T23:16:47.155Z,99159.38
2022-12-13T23:22:05.306Z,99167.22
2022-12-13T23:24:32.430Z,99170.66
2022-12-13T23:26:59.469Z,99167.19
2022-12-13T23:29:26.561Z,99172.38
2022-12-13T23:31:53.773Z,99169.78
2022-12-13T23:34:20.680Z,99175.81
2022-12-13T23:36:47.583Z,99180.16
2022-12-13T23:39:14.665Z,99176.72
2022-12-13T23:41:41.963Z,99172.38
2022-12-13T23:44:10.619Z,99177.56
2022-12-13T23:46:38.386Z,99180.16
2022-12-13T23:49:07.336Z,99174.97
2022-12-13T23:51:34.806Z,99176.69
2022-12-13T23:54:01.914Z,99184.44
2022-12-13T23:56:29.654Z,99181.84
2022-12-13T23:58:57.102Z,99180.97
